createdAt,value
2019-03-28T00:00:59.336Z,95.50
2019-03-28T00:03:27.145Z,95.60
2019-03-28T00:05:55.056Z,95.70
2019-03-28T00:08:22.720Z,95.80
2019-03-28T00:10:50.467Z,95.70
2019-03-28T00:13:18.416Z,95.80
2019-03-28T00:15:46.157Z,95.90
2019-03-28T00:18:13.921Z,95.70
2019-03-28T00:20:41.684Z,95.90
2019-03-28T00:23:44.205Z,95.90
2019-03-28T00:26:12.040Z,95.80
2019-03-28T00:28:39.804Z,96.10
2019-03-28T00:31:07.702Z,95.90
2019-03-28T00:33:35.465Z,95.80
2019-03-28T00:36:03.312Z,95.80
2019-03-28T00:38:31.060Z,95.90
2019-03-28T00:40:59.016Z,95.90
2019-03-28T00:43:27.066Z,95.80
2019-03-28T00:45:54.815Z,95.90
2019-03-28T00:48:22.568Z,95.90
2019-03-28T00:50:50.328Z,95.90
2019-03-28T00:53:18.084Z,95.80
2019-03-28T00:55:45.812Z,95.70
2019-03-28T00:58:13.571Z,95.60
2019-03-28T01:00:41.317Z,95.60
2019-03-28T01:03:09.048Z,95.70
2019-03-28T01:05:36.871Z,95.60
2019-03-28T01:08:04.757Z,95.90
2019-03-28T01:10:32.484Z,96.30
2019-03-28T01:13:00.226Z,96.00
2019-03-28T01:15:27.980Z,95.90
2019-03-28T01:17:55.721Z,95.80
2019-03-28T01:20:23.488Z,95.60
2019-03-28T01:22:51.221Z,96.00
2019-03-28T01:25:18.964Z,95.90
2019-03-28T01:27:46.714Z,95.80
2019-03-28T01:30:14.688Z,95.60
2019-03-28T01:32:42.500Z,95.50
2019-03-28T01:35:11.161Z,95.60
2019-03-28T01:37:38.902Z,95.70
2019-03-28T01:40:07.282Z,95.70
2019-03-28T01:42:35.034Z,95.50
2019-03-28T01:45:03.264Z,95.60
2019-03-28T01:47:31.044Z,95.60
2019-03-28T01:49:58.796Z,95.70
2019-03-28T01:52:26.568Z,95.70
2019-03-28T01:54:54.763Z,95.60
2019-03-28T01:57:23.080Z,95.60
2019-03-28T01:59:50.840Z,95.40
2019-03-28T02:02:18.601Z,95.60
2019-03-28T02:04:46.329Z,95.60
2019-03-28T02:07:14.184Z,95.60
2019-03-28T02:09:41.924Z,95.70
2019-03-28T02:12:09.680Z,95.70
2019-03-28T02:14:38.305Z,95.80
2019-03-28T02:17:06.168Z,95.70
2019-03-28T02:19:34.008Z,95.60
2019-03-28T02:22:01.765Z,95.90
2019-03-28T02:24:29.504Z,95.90
2019-03-28T02:26:57.265Z,96.00
2019-03-28T02:29:25.008Z,95.80
2019-03-28T02:31:52.762Z,95.80
2019-03-28T02:34:20.493Z,95.80
2019-03-28T02:36:49.156Z,95.80
2019-03-28T02:39:16.921Z,95.80
2019-03-28T02:41:44.769Z,95.60
2019-03-28T02:44:12.556Z,95.80
2019-03-28T02:46:40.291Z,95.70
2019-03-28T02:49:08.031Z,95.60
2019-03-28T02:51:35.881Z,95.60
2019-03-28T02:54:03.640Z,95.70
2019-03-28T02:56:31.504Z,96.20
2019-03-28T02:58:59.261Z,96.00
2019-03-28T03:01:30.089Z,95.80
2019-03-28T03:03:56.705Z,95.80
2019-03-28T03:06:24.762Z,95.80
2019-03-28T03:08:52.541Z,95.80
2019-03-28T03:11:20.301Z,95.60
2019-03-28T03:13:48.058Z,95.70
2019-03-28T03:16:15.788Z,95.70
2019-03-28T03:18:43.565Z,95.60
2019-03-28T03:21:11.389Z,95.60
2019-03-28T03:23:39.154Z,95.50
2019-03-28T03:26:06.917Z,95.60
2019-03-28T03:28:34.659Z,95.80
2019-03-28T03:31:02.395Z,95.70
2019-03-28T03:33:30.159Z,95.80
2019-03-28T03:35:58.009Z,95.90
2019-03-28T03:38:26.719Z,96.00
2019-03-28T03:40:54.891Z,96.00
2019-03-28T03:43:23.166Z,96.00
2019-03-28T03:45:51.265Z,96.00
2019-03-28T03:48:19.013Z,96.00
2019-03-28T03:50:46.761Z,96.20
2019-03-28T03:53:14.444Z,96.10
2019-03-28T03:55:42.293Z,96.20
2019-03-28T03:58:16.434Z,96.30
2019-03-28T04:00:39.782Z,96.30
2019-03-28T04:03:07.558Z,96.30
2019-03-28T04:05:35.380Z,96.40
2019-03-28T04:08:03.178Z,96.30
2019-03-28T04:10:31.032Z,96.20
2019-03-28T04:12:58.774Z,96.30
2019-03-28T04:15:26.567Z,96.40
2019-03-28T04:17:54.303Z,96.20
2019-03-28T04:20:22.038Z,96.10
2019-03-28T04:22:49.777Z,96.30
2019-03-28T04:25:17.624Z,96.30
2019-03-28T04:27:57.339Z,96.70
2019-03-28T04:30:25.052Z,96.60
2019-03-28T04:32:52.804Z,96.70
2019-03-28T04:35:20.566Z,96.50
2019-03-28T04:37:48.405Z,96.60
2019-03-28T04:40:17.084Z,96.50
2019-03-28T04:42:46.003Z,96.50
2019-03-28T04:45:13.950Z,96.60
2019-03-28T04:47:41.704Z,96.60
2019-03-28T04:50:10.328Z,96.50
2019-03-28T04:52:38.281Z,96.50
2019-03-28T04:55:06.648Z,96.70
2019-03-28T04:57:34.414Z,96.70
2019-03-28T05:00:02.523Z,96.80
2019-03-28T05:02:31.329Z,96.80
2019-03-28T05:04:59.485Z,96.80
2019-03-28T05:07:27.221Z,96.80
2019-03-28T05:09:54.860Z,96.70
2019-03-28T05:12:22.653Z,96.80
2019-03-28T05:14:50.380Z,96.80
2019-03-28T05:17:18.160Z,96.70
2019-03-28T05:19:46.020Z,96.80
2019-03-28T05:22:13.765Z,96.80
2019-03-28T05:24:41.513Z,96.70
2019-03-28T05:27:09.268Z,96.60
2019-03-28T05:29:36.988Z,96.70
2019-03-28T05:32:07.025Z,96.60
2019-03-28T05:34:34.780Z,96.30
2019-03-28T05:37:02.529Z,96.30
2019-03-28T05:39:30.348Z,96.70
2019-03-28T05:41:58.146Z,96.40
2019-03-28T05:44:25.880Z,96.30
2019-03-28T05:46:53.628Z,96.10
2019-03-28T05:49:21.446Z,95.90
2019-03-28T05:51:49.229Z,95.80
2019-03-28T05:54:17.000Z,96.00
2019-03-28T05:56:44.880Z,96.00
2019-03-28T05:59:12.604Z,96.00
2019-03-28T06:01:40.493Z,96.10
2019-03-28T06:04:08.432Z,96.20
2019-03-28T06:06:36.401Z,96.20
2019-03-28T06:09:06.349Z,96.40
2019-03-28T06:11:34.144Z,96.00
2019-03-28T06:14:01.956Z,95.90
2019-03-28T06:16:29.700Z,95.80
2019-03-28T06:18:57.465Z,95.80
2019-03-28T06:21:25.216Z,95.60
2019-03-28T06:23:53.101Z,95.40
2019-03-28T06:26:21.081Z,95.10
2019-03-28T06:28:48.824Z,95.00
2019-03-28T06:31:16.561Z,94.80
2019-03-28T06:33:44.299Z,94.80
2019-03-28T06:36:12.046Z,94.80
2019-03-28T06:38:39.784Z,94.80
2019-03-28T06:41:07.882Z,94.50
2019-03-28T06:43:36.536Z,94.30
2019-03-28T06:46:04.312Z,94.10
2019-03-28T06:48:32.065Z,94.20
2019-03-28T06:50:59.798Z,93.80
2019-03-28T06:53:27.552Z,94.10
2019-03-28T06:55:55.302Z,93.90
2019-03-28T06:58:23.063Z,94.10
2019-03-28T07:00:50.811Z,93.50
2019-03-28T07:03:18.560Z,93.60
2019-03-28T07:05:46.289Z,93.80
2019-03-28T07:08:14.090Z,93.60
2019-03-28T07:10:41.832Z,93.60
2019-03-28T07:13:10.350Z,93.60
2019-03-28T07:15:38.282Z,93.60
2019-03-28T07:18:06.033Z,93.10
2019-03-28T07:20:33.832Z,92.70
2019-03-28T07:23:01.573Z,92.50
2019-03-28T07:25:30.474Z,92.70
2019-03-28T07:27:58.337Z,92.20
2019-03-28T07:30:26.092Z,92.50
2019-03-28T07:32:54.008Z,92.40
2019-03-28T07:35:21.755Z,92.40
2019-03-28T07:37:49.640Z,92.10
2019-03-28T07:40:17.573Z,92.70
2019-03-28T07:42:45.324Z,91.70
2019-03-28T07:45:14.320Z,91.50
2019-03-28T07:47:42.119Z,90.90
2019-03-28T07:50:10.242Z,91.20
2019-03-28T07:52:38.131Z,90.70
2019-03-28T07:55:07.493Z,90.20
2019-03-28T07:57:35.361Z,90.40
2019-03-28T08:00:05.806Z,90.40
2019-03-28T08:02:33.545Z,90.10
2019-03-28T08:05:02.112Z,90.50
2019-03-28T08:07:30.185Z,90.20
2019-03-28T08:09:58.021Z,90.70
2019-03-28T08:12:25.769Z,90.50
2019-03-28T08:14:53.512Z,89.80
2019-03-28T08:17:21.289Z,90.60
2019-03-28T08:19:49.129Z,89.80
2019-03-28T08:22:16.893Z,89.40
2019-03-28T08:24:44.642Z,90.10
2019-03-28T08:27:12.381Z,90.00
2019-03-28T08:29:40.196Z,89.40
2019-03-28T08:32:13.652Z,89.50
2019-03-28T08:34:41.575Z,90.30
2019-03-28T08:37:09.328Z,90.70
2019-03-28T08:39:37.365Z,91.20
2019-03-28T08:42:05.110Z,90.60
2019-03-28T08:44:32.844Z,90.40
2019-03-28T08:47:00.650Z,90.10
2019-03-28T08:49:28.784Z,89.50
2019-03-28T08:51:56.545Z,89.20
2019-03-28T08:54:24.321Z,88.90
2019-03-28T08:56:52.056Z,88.70
2019-03-28T08:59:19.808Z,88.40
2019-03-28T09:04:33.607Z,87.50
2019-03-28T09:07:01.365Z,87.80
2019-03-28T09:09:29.113Z,86.80
2019-03-28T09:11:56.876Z,88.40
2019-03-28T09:14:24.626Z,87.40
2019-03-28T09:17:01.241Z,87.50
2019-03-28T09:22:15.073Z,87.70
2019-03-28T09:24:42.858Z,87.40
2019-03-28T09:27:10.700Z,89.40
2019-03-28T09:29:38.455Z,89.90
2019-03-28T09:32:06.209Z,88.60
2019-03-28T09:34:34.077Z,86.80
2019-03-28T09:37:01.814Z,85.70
2019-03-28T09:39:29.568Z,85.70
2019-03-28T09:41:57.494Z,86.10
2019-03-28T09:44:25.300Z,85.50
2019-03-28T09:46:53.056Z,85.60
2019-03-28T09:49:20.825Z,85.90
2019-03-28T09:51:48.578Z,85.30
2019-03-28T09:54:16.349Z,84.70
2019-03-28T09:56:44.088Z,84.20
2019-03-28T09:59:11.949Z,84.00
2019-03-28T10:01:39.688Z,83.20
2019-03-28T10:04:07.477Z,84.20
2019-03-28T10:06:35.241Z,84.50
2019-03-28T10:09:04.497Z,83.70
2019-03-28T10:11:32.235Z,82.80
2019-03-28T10:14:00.023Z,83.80
2019-03-28T10:16:27.947Z,83.70
2019-03-28T10:18:55.824Z,83.80
2019-03-28T10:21:23.668Z,83.70
2019-03-28T10:23:51.414Z,83.90
2019-03-28T10:26:19.158Z,83.60
2019-03-28T10:28:46.903Z,83.60
2019-03-28T10:31:16.654Z,83.80
2019-03-28T10:33:44.412Z,84.10
2019-03-28T10:36:12.198Z,83.80
2019-03-28T10:38:40.070Z,85.00
2019-03-28T10:41:07.827Z,84.80
2019-03-28T10:43:35.664Z,85.40
2019-03-28T10:46:03.445Z,85.40
2019-03-28T10:48:31.218Z,86.10
2019-03-28T10:50:59.889Z,86.10
2019-03-28T10:53:30.086Z,85.60
2019-03-28T10:55:57.615Z,86.50
2019-03-28T10:58:25.404Z,86.80
2019-03-28T11:00:54.732Z,87.80
2019-03-28T11:03:22.800Z,87.70
2019-03-28T11:06:02.835Z,88.40
2019-03-28T11:08:30.649Z,87.80
2019-03-28T11:10:58.629Z,88.00
2019-03-28T11:13:26.640Z,87.80
2019-03-28T11:15:54.481Z,88.50
2019-03-28T11:18:22.284Z,90.10
2019-03-28T11:20:50.168Z,90.80
2019-03-28T11:23:17.954Z,90.70
2019-03-28T11:25:45.745Z,90.90
2019-03-28T11:28:13.538Z,90.50
2019-03-28T11:30:41.380Z,90.50
2019-03-28T11:33:09.221Z,90.50
2019-03-28T11:35:36.970Z,90.60
2019-03-28T11:38:05.062Z,90.40
2019-03-28T11:40:32.921Z,90.90
2019-03-28T11:43:00.844Z,90.90
2019-03-28T11:45:28.709Z,91.00
2019-03-28T11:47:56.604Z,91.00
2019-03-28T11:50:24.612Z,90.80
2019-03-28T11:52:53.329Z,90.70
2019-03-28T11:55:21.169Z,91.10
2019-03-28T11:57:48.945Z,91.50
2019-03-28T12:00:18.303Z,91.60
2019-03-28T12:02:46.044Z,92.30
2019-03-28T12:05:14.074Z,92.60
2019-03-28T12:07:42.015Z,92.70
2019-03-28T12:10:12.056Z,92.60
2019-03-28T12:12:39.813Z,92.60
2019-03-28T12:15:08.656Z,93.00
2019-03-28T12:17:36.496Z,92.70
2019-03-28T12:20:05.168Z,92.50
2019-03-28T12:22:32.932Z,91.70
2019-03-28T12:25:01.053Z,92.30
2019-03-28T12:27:28.894Z,91.90
2019-03-28T12:29:56.640Z,92.90
2019-03-28T12:32:24.493Z,92.50
2019-03-28T12:34:52.156Z,92.40
2019-03-28T12:37:19.949Z,92.30
2019-03-28T12:39:48.161Z,92.40
2019-03-28T12:42:16.053Z,92.00
2019-03-28T12:44:56.366Z,91.80
2019-03-28T12:47:13.557Z,91.90
2019-03-28T12:49:41.349Z,92.00
2019-03-28T12:52:09.072Z,92.10
2019-03-28T12:54:36.833Z,92.10
2019-03-28T12:57:04.959Z,92.30
2019-03-28T12:59:33.745Z,92.70
2019-03-28T13:02:01.868Z,93.40
2019-03-28T13:04:29.629Z,93.60
2019-03-28T13:06:57.438Z,93.50
2019-03-28T13:09:25.293Z,93.80
2019-03-28T13:11:53.405Z,94.10
2019-03-28T13:14:21.560Z,93.80
2019-03-28T13:16:49.516Z,94.10
2019-03-28T13:19:18.113Z,94.30
2019-03-28T13:21:46.066Z,94.60
2019-03-28T13:24:14.972Z,94.00
2019-03-28T13:26:42.981Z,93.90
2019-03-28T13:29:11.249Z,93.90
2019-03-28T13:31:40.585Z,93.70
2019-03-28T13:34:08.408Z,93.60
2019-03-28T13:36:37.089Z,94.20
2019-03-28T13:39:06.581Z,94.10
2019-03-28T13:41:34.344Z,94.30
2019-03-28T13:44:02.081Z,94.60
2019-03-28T13:46:29.842Z,94.70
2019-03-28T13:48:57.609Z,94.80
2019-03-28T13:51:25.437Z,94.50
2019-03-28T13:53:54.136Z,94.10
2019-03-28T13:56:22.033Z,94.20
2019-03-28T13:58:49.771Z,93.70
2019-03-28T14:01:17.557Z,94.00
2019-03-28T14:03:45.465Z,94.00
2019-03-28T14:06:13.219Z,93.90
2019-03-28T14:08:40.985Z,93.80
2019-03-28T14:11:08.826Z,93.70
2019-03-28T14:13:36.571Z,93.70
2019-03-28T14:16:04.367Z,93.90
2019-03-28T14:18:32.283Z,93.50
2019-03-28T14:21:00.028Z,93.40
2019-03-28T14:23:27.902Z,93.00
2019-03-28T14:25:55.708Z,93.20
2019-03-28T14:28:23.726Z,93.00
2019-03-28T14:30:51.773Z,93.20
2019-03-28T14:33:19.680Z,93.30
2019-03-28T14:35:47.478Z,93.30
2019-03-28T14:38:16.212Z,93.00
2019-03-28T14:40:43.969Z,92.90
2019-03-28T14:43:11.735Z,93.40
2019-03-28T14:45:39.505Z,93.70
2019-03-28T14:48:08.296Z,94.10
2019-03-28T14:50:38.428Z,94.40
2019-03-28T14:53:06.231Z,94.40
2019-03-28T14:55:34.713Z,94.60
2019-03-28T14:58:03.876Z,94.70
2019-03-28T15:00:49.193Z,94.60
2019-03-28T15:03:25.668Z,94.80
2019-03-28T15:05:47.333Z,95.00
2019-03-28T15:08:15.101Z,95.20
2019-03-28T15:10:42.973Z,95.20
2019-03-28T15:13:10.751Z,95.10
2019-03-28T15:15:38.506Z,95.00
2019-03-28T15:18:06.277Z,94.90
2019-03-28T15:20:34.092Z,95.20
2019-03-28T15:23:02.077Z,95.30
2019-03-28T15:25:29.856Z,95.60
2019-03-28T15:27:57.738Z,95.60
2019-03-28T15:30:25.507Z,95.60
2019-03-28T15:32:53.272Z,95.70
2019-03-28T15:35:21.037Z,95.80
2019-03-28T15:37:48.825Z,95.50
2019-03-28T15:40:16.564Z,95.70
2019-03-28T15:42:44.512Z,95.90
2019-03-28T15:45:12.518Z,96.00
2019-03-28T15:47:40.252Z,95.90
2019-03-28T15:50:08.313Z,95.50
2019-03-28T15:52:36.077Z,95.70
2019-03-28T15:55:05.252Z,95.60
2019-03-28T15:57:33.944Z,95.80
2019-03-28T16:00:01.790Z,95.80
2019-03-28T16:02:29.524Z,95.80
2019-03-28T16:04:57.397Z,95.90
2019-03-28T16:07:25.286Z,95.90
2019-03-28T16:09:53.115Z,96.20
2019-03-28T16:12:20.978Z,96.80
2019-03-28T16:14:48.868Z,96.90
2019-03-28T16:17:16.593Z,97.20
2019-03-28T16:19:57.740Z,97.50
2019-03-28T16:22:25.648Z,97.30
2019-03-28T16:24:53.462Z,97.50
2019-03-28T16:27:21.245Z,97.50
2019-03-28T16:29:48.982Z,97.30
2019-03-28T16:32:16.645Z,96.90
2019-03-28T16:34:44.419Z,96.90
2019-03-28T16:37:12.188Z,96.70
2019-03-28T16:39:40.083Z,96.50
2019-03-28T16:42:07.847Z,96.30
2019-03-28T16:44:35.580Z,96.20
2019-03-28T16:47:03.344Z,96.20
2019-03-28T16:49:31.084Z,96.20
2019-03-28T16:51:58.863Z,96.10
2019-03-28T16:54:27.863Z,96.20
2019-03-28T16:56:55.836Z,96.20
2019-03-28T16:59:23.661Z,96.10
2019-03-28T17:01:51.393Z,96.10
2019-03-28T17:04:21.025Z,96.20
2019-03-28T17:06:49.068Z,96.20
2019-03-28T17:09:16.894Z,96.40
2019-03-28T17:11:44.677Z,96.40
2019-03-28T17:14:12.437Z,96.30
2019-03-28T17:16:40.281Z,96.20
2019-03-28T17:19:08.110Z,96.00
2019-03-28T17:21:35.949Z,96.00
2019-03-28T17:24:03.701Z,96.00
2019-03-28T17:26:31.464Z,96.10
2019-03-28T17:28:59.312Z,96.20
2019-03-28T17:31:27.265Z,96.20
2019-03-28T17:33:55.108Z,96.20
2019-03-28T17:36:22.896Z,96.40
2019-03-28T17:38:50.787Z,96.40
2019-03-28T17:41:18.684Z,96.30
2019-03-28T17:43:46.421Z,96.40
2019-03-28T17:46:14.260Z,96.30
2019-03-28T17:48:42.088Z,96.40
2019-03-28T17:51:09.930Z,96.50
2019-03-28T17:53:37.872Z,96.50
2019-03-28T17:56:05.780Z,96.60
2019-03-28T17:58:33.536Z,96.60
2019-03-28T18:01:01.289Z,96.80
2019-03-28T18:03:31.433Z,96.80
2019-03-28T18:05:58.882Z,96.90
2019-03-28T18:08:26.760Z,96.80
2019-03-28T18:10:54.499Z,96.90
2019-03-28T18:13:22.244Z,96.80
2019-03-28T18:15:50.029Z,97.00
2019-03-28T18:18:17.793Z,97.00
2019-03-28T18:20:45.525Z,96.90
2019-03-28T18:23:13.279Z,97.00
2019-03-28T18:25:41.017Z,96.90
2019-03-28T18:28:09.666Z,97.20
2019-03-28T18:30:37.617Z,97.60
2019-03-28T18:33:05.479Z,97.40
2019-03-28T18:35:33.228Z,97.30
2019-03-28T18:38:00.982Z,97.40
2019-03-28T18:40:28.740Z,97.50
2019-03-28T18:42:56.469Z,97.40
2019-03-28T18:45:24.334Z,97.20
2019-03-28T18:47:52.377Z,97.60
2019-03-28T18:50:20.212Z,97.10
2019-03-28T18:52:48.060Z,97.30
2019-03-28T18:55:15.929Z,97.30
2019-03-28T18:57:43.681Z,97.50
2019-03-28T19:00:12.166Z,97.60
2019-03-28T19:02:39.936Z,97.60
2019-03-28T19:05:19.154Z,97.70
2019-03-28T19:07:37.738Z,97.60
2019-03-28T19:10:06.905Z,97.60
2019-03-28T19:12:34.654Z,97.50
2019-03-28T19:15:03.501Z,97.50
2019-03-28T19:17:31.362Z,97.40
2019-03-28T19:19:59.644Z,97.60
2019-03-28T19:22:27.588Z,97.60
2019-03-28T19:24:55.348Z,97.60
2019-03-28T19:27:23.084Z,97.70
2019-03-28T19:37:32.909Z,97.60
2019-03-28T19:40:00.785Z,97.60
2019-03-28T19:42:29.095Z,97.70
2019-03-28T19:44:56.952Z,97.90
2019-03-28T19:47:24.761Z,97.80
2019-03-28T19:49:52.658Z,97.90
2019-03-28T19:52:20.578Z,97.80
2019-03-28T19:54:48.454Z,97.90
2019-03-28T19:57:16.218Z,97.90
2019-03-28T19:59:43.965Z,97.90
2019-03-28T20:02:14.222Z,98.00
2019-03-28T20:04:41.553Z,97.70
2019-03-28T20:07:20.823Z,97.80
2019-03-28T20:09:39.085Z,97.80
2019-03-28T20:12:06.877Z,97.90
2019-03-28T20:14:34.740Z,97.70
2019-03-28T20:17:02.473Z,97.70
2019-03-28T20:19:30.212Z,97.80
2019-03-28T20:21:59.538Z,97.90
2019-03-28T20:24:27.689Z,97.90
2019-03-28T20:26:56.113Z,97.90
2019-03-28T20:29:24.089Z,97.90
2019-03-28T20:31:51.835Z,98.20
2019-03-28T20:34:19.576Z,98.20
2019-03-28T20:36:47.417Z,98.20
2019-03-28T20:39:15.180Z,98.20
2019-03-28T20:41:43.055Z,98.00
2019-03-28T20:44:11.799Z,98.10
2019-03-28T20:46:40.848Z,97.80
2019-03-28T20:49:09.620Z,97.90
2019-03-28T20:51:37.716Z,97.90
2019-03-28T20:54:07.752Z,97.90
2019-03-28T20:56:35.103Z,98.40
2019-03-28T20:59:02.945Z,98.60
2019-03-28T21:01:30.973Z,98.50
2019-03-28T21:03:58.916Z,98.40
2019-03-28T21:06:26.797Z,98.50
2019-03-28T21:08:54.568Z,98.30
2019-03-28T21:11:23.017Z,98.10
2019-03-28T21:13:50.817Z,98.10
2019-03-28T21:16:18.546Z,98.60
2019-03-28T21:18:46.298Z,98.40
2019-03-28T21:21:14.064Z,98.70
2019-03-28T21:23:41.833Z,98.90
2019-03-28T21:26:09.598Z,99.60
2019-03-28T21:28:46.999Z,99.90
2019-03-28T21:31:06.998Z,99.70
2019-03-28T21:33:34.746Z,99.70
2019-03-28T21:36:02.497Z,99.90
2019-03-28T21:38:30.292Z,99.60
2019-03-28T21:40:59.523Z,99.60
2019-03-28T21:43:27.757Z,99.50
2019-03-28T21:45:55.727Z,99.40
2019-03-28T21:48:23.642Z,99.30
2019-03-28T21:50:51.527Z,99.60
2019-03-28T21:53:20.150Z,99.50
2019-03-28T21:55:54.884Z,99.30
2019-03-28T21:58:19.132Z,99.40
2019-03-28T22:00:46.947Z,99.40
2019-03-28T22:03:15.047Z,99.40
2019-03-28T22:05:43.086Z,99.30
2019-03-28T22:08:10.773Z,99.30
2019-03-28T22:10:39.053Z,99.20
2019-03-28T22:13:07.060Z,99.20
2019-03-28T22:15:34.986Z,98.90
2019-03-28T22:18:02.954Z,99.00
2019-03-28T22:20:30.688Z,99.30
2019-03-28T22:22:58.457Z,98.90
2019-03-28T22:25:26.214Z,98.90
2019-03-28T22:27:54.053Z,99.10
2019-03-28T22:30:21.796Z,99.20
2019-03-28T22:32:50.065Z,99.20
2019-03-28T22:35:18.238Z,99.30
2019-03-28T22:37:45.989Z,99.30
2019-03-28T22:40:13.928Z,99.40
2019-03-28T22:42:41.693Z,99.40
2019-03-28T22:45:11.253Z,99.50
2019-03-28T22:47:38.976Z,99.10
2019-03-28T22:50:08.151Z,99.10
2019-03-28T22:52:35.868Z,98.90
2019-03-28T22:55:04.607Z,98.90
2019-03-28T22:57:32.351Z,98.60
2019-03-28T23:00:00.161Z,98.70
2019-03-28T23:02:29.004Z,98.60
2019-03-28T23:04:57.035Z,98.70
2019-03-28T23:07:24.765Z,98.80
2019-03-28T23:09:52.536Z,98.70
2019-03-28T23:12:20.293Z,98.60
2019-03-28T23:14:48.031Z,98.80
2019-03-28T23:17:15.778Z,99.20
2019-03-28T23:19:43.599Z,98.70
2019-03-28T23:22:11.356Z,99.30
2019-03-28T23:24:39.219Z,99.30
2019-03-28T23:27:07.089Z,99.20
2019-03-28T23:29:34.829Z,99.10
2019-03-28T23:32:02.564Z,98.70
2019-03-28T23:34:30.331Z,99.30
2019-03-28T23:36:58.199Z,99.30
2019-03-28T23:39:26.632Z,99.20
2019-03-28T23:41:54.396Z,99.00
2019-03-28T23:44:22.132Z,98.80
2019-03-28T23:46:49.894Z,98.60
2019-03-28T23:49:17.652Z,98.80
2019-03-28T23:51:45.402Z,98.80
2019-03-28T23:54:13.166Z,98.70
2019-03-28T23:56:40.956Z,98.70
2019-03-28T23:59:10.709Z,98.80
